Erie, Kansas
Current Conditions -  °F | °C
As of 5:02 AM on Friday 31 Oct 2014 (Local Time) from KCNU Reporting Station
Broken Clouds Broken Clouds  
Wind Chill:   Ceiling: 2600
Heat Index:   Visibility: 10mi
Dew Point:   Wind: 14mph
Humidity: 80%   Direction: 350°N
Pressure: 30.3"   Gusts: NA
Location:  37.57°N, 95.24°W
Report Text: KCNU 311002Z AUTO 35012KT 10SM BKN026 08/05 A3030 RMK AO2 T00830050
Loading
Personal Weather Stations






























Interactive Weather Map
Tropical Storm Tracking
New forecast layout! Learn more

10-Day Weather Forecast

Advertisements
Track Severe Weather on mobile